Buoy 31735

sailwx.info

Track history (hours):
 
Tides and Currents Weather Stations Pressure Air Temp Water Temp Dewpoint Dewpoint Depression Visibility Wind Speed Wind Dir Waves Ship Positions

Drifting buoy 31735

Last reported at 2018-Feb-21 00:00 UTC. Time now 2018-Feb-21 01:28 UTC.
Position N 21°05' W 063°37'.

Barometer 1023.6 mb
Water temperature 25.1 ° C

Date/timePositionNaut miles runAvg speedWind from/ knotsBaromVisibWave heightAir tempDewpointWater temp
2018-Feb-21 00:00N 21°05' W 063°37'0 0.0 1023.6 25.1
2018-Feb-20 23:00N 21°05' W 063°37'1 0.8 1023.2 25.1
2018-Feb-20 22:00N 21°05' W 063°37'0 0.0 1022.8 25.2
2018-Feb-20 21:00N 21°05' W 063°37'1 0.6 1022.5 25.2
2018-Feb-20 20:00N 21°05' W 063°36'1 0.6 1022.4 25.2
2018-Feb-20 19:00N 21°06' W 063°36'0 0.0 1022.6 25.1
2018-Feb-20 18:00N 21°06' W 063°36'1 0.8 1023.1 25.2
2018-Feb-20 17:00N 21°07' W 063°35'0 0.0 1023.7 25.2
2018-Feb-20 16:00N 21°07' W 063°35'1 0.6 1024.2 25.2
2018-Feb-20 15:00N 21°07' W 063°35'1 0.6 1024.6 25.1
2018-Feb-20 14:00N 21°08' W 063°35'0 0.0 1024.5 25.2
2018-Feb-20 13:00N 21°08' W 063°35'0 0.0 1024.1 25.1
2018-Feb-20 12:00N 21°08' W 063°35'1 0.8 1023.5 25.1
2018-Feb-20 11:00N 21°08' W 063°36'0 0.0 1023.1 25.2
2018-Feb-20 10:00N 21°08' W 063°36'0 0.0 1022.8 25.1
2018-Feb-20 09:00N 21°08' W 063°36'1 0.8 1022.5 25.1
2018-Feb-20 08:00N 21°09' W 063°35'1 0.6 1022.5 25.1
2018-Feb-20 07:00N 21°09' W 063°36'0 0.0 1022.8 25.1
2018-Feb-20 06:00N 21°09' W 063°36'1 0.6 1023.4 25.1
2018-Feb-20 05:00N 21°10' W 063°36'0 0.0 1023.9 25.1
2018-Feb-20 04:00N 21°10' W 063°36'0 0.0 1024.2 25.1
2018-Feb-20 03:00N 21°10' W 063°36'1 0.6 1024.1 25.1
2018-Feb-20 02:00N 21°10' W 063°36'0 0.0 1024.2 25.1
2018-Feb-20 01:00N 21°10' W 063°36'1 0.6 1023.9 25.2
2018-Feb-20 00:00N 21°10' W 063°35'1 0.6 1023.4 25.2
2018-Feb-19 23:00N 21°10' W 063°35'0 0.0 1023.1 25.2
2018-Feb-19 22:00N 21°10' W 063°35'0 0.0 1022.9 25.2
2018-Feb-19 21:00N 21°10' W 063°35'1 0.8 1022.5 25.2
2018-Feb-19 20:00N 21°10' W 063°34'0 0.0 1022.5 25.2
2018-Feb-19 19:00N 21°10' W 063°34'0 0.0 1022.5 25.2
2018-Feb-19 18:00N 21°10' W 063°34'1 0.6 1022.9 25.2
2018-Feb-19 17:00N 21°10' W 063°34'0 0.0 1023.5 25.2
2018-Feb-19 16:00N 21°10' W 063°34'0 0.0 1024.1 25.2
2018-Feb-19 15:00N 21°10' W 063°34'1 0.6 1024.6 25.1
2018-Feb-19 14:00N 21°10' W 063°33'0 0.0 1024.6 25.2
2018-Feb-19 13:00N 21°10' W 063°33'1 0.6 1024.0 25.1
2018-Feb-19 12:00N 21°10' W 063°32'0 0.0 1023.4 25.1
2018-Feb-19 11:00N 21°10' W 063°32'1 0.6 1022.8 25.1
2018-Feb-19 10:00N 21°10' W 063°32'0 0.0 1022.4 25.1
2018-Feb-19 09:00N 21°10' W 063°32'0 0.0 1022.0 25.1
2018-Feb-19 08:00N 21°10' W 063°32'1 0.6 1021.8 25.1
2018-Feb-19 07:00N 21°11' W 063°32'0 0.0 1022.1 25.1
2018-Feb-19 06:00N 21°11' W 063°32'0 0.0 1022.7 25.1
2018-Feb-19 05:00N 21°11' W 063°32'1 0.6 1023.1 25.2
2018-Feb-19 04:00N 21°11' W 063°32'1 0.8 1023.3 25.1
2018-Feb-19 03:00N 21°12' W 063°33'0 0.0 1023.1 25.1
2018-Feb-19 02:00N 21°12' W 063°33'1 0.6 1022.9 25.2
2018-Feb-19 01:00N 21°12' W 063°34'1 0.6 1022.8 25.2
2018-Feb-19 00:00N 21°13' W 063°34'0 0.0 1022.4 25.2
2018-Feb-18 23:00N 21°13' W 063°34'1 0.6 1022.0 25.2
2018-Feb-18 22:00N 21°13' W 063°34'0 0.0 1021.7 25.2
2018-Feb-18 21:00N 21°13' W 063°34'0 0.0 1021.4 25.2
2018-Feb-18 20:00N 21°13' W 063°34'1 0.6 1021.3 25.2
2018-Feb-18 19:00N 21°12' W 063°34'0 0.0 1021.5 25.2
2018-Feb-18 18:00N 21°12' W 063°34'1 0.6 1021.8 25.2
2018-Feb-18 17:00N 21°12' W 063°35'0 0.0 1022.4 25.3
2018-Feb-18 16:00N 21°12' W 063°35'0 0.0 1023.0 25.2
2018-Feb-18 15:00N 21°12' W 063°35'1 0.6 1023.6 25.2
2018-Feb-18 14:00N 21°13' W 063°35'0 0.0 1023.7 25.1
2018-Feb-18 13:00N 21°13' W 063°35'0 0.0 1023.6 25.1
2018-Feb-18 12:00N 21°13' W 063°35'0 0.0 1022.8 25.1
2018-Feb-18 11:00N 21°13' W 063°35'0 0.0 1021.9 25.1
2018-Feb-18 10:00N 21°13' W 063°35'0 0.0 1021.4 25.1
2018-Feb-18 09:00N 21°13' W 063°35'0 0.0 1020.8 25.1
2018-Feb-18 08:00N 21°13' W 063°35'1 0.6 1020.3 25.1
2018-Feb-18 07:00N 21°13' W 063°34'1 0.6 1020.7 25.2
2018-Feb-18 06:00N 21°13' W 063°34'0 0.0 1021.0 25.2
2018-Feb-18 05:00N 21°13' W 063°34'0 0.0 1021.6 25.2
2018-Feb-18 04:00N 21°13' W 063°34'0 0.0 1022.4 25.1
2018-Feb-18 03:00N 21°13' W 063°34'1 0.6 1022.5 25.2
2018-Feb-18 02:00N 21°14' W 063°34'0 0.0 1022.8 25.1
2018-Feb-18 01:00N 21°14' W 063°34'0 0.0 1022.8 25.2
2018-Feb-18 00:00N 21°14' W 063°34'1 0.6 1022.6 25.2
2018-Feb-17 23:00N 21°14' W 063°34'0 0.0 1021.9 25.2
2018-Feb-17 22:00N 21°14' W 063°34'1 0.6 1021.7 25.2
2018-Feb-17 21:00N 21°15' W 063°34'0 0.0 1021.5 25.2
2018-Feb-17 20:00N 21°15' W 063°34'0 0.0 1021.1 25.3
2018-Feb-17 19:00N 21°15' W 063°34'0 0.0 1021.4 25.3
2018-Feb-17 18:00N 21°15' W 063°34'1 0.6 1021.9 25.3
2018-Feb-17 17:00N 21°16' W 063°34'0 0.0 1022.6 25.3
2018-Feb-17 16:00N 21°16' W 063°34'1 0.6 1023.5 25.2
2018-Feb-17 15:00N 21°16' W 063°34'0 0.0 1023.9 25.2
2018-Feb-17 14:00N 21°16' W 063°34'1 0.6 1023.9 25.2
2018-Feb-17 13:00N 21°16' W 063°35'1 0.6 1023.6 25.2
2018-Feb-17 12:00N 21°17' W 063°35'0 0.0 1023.0 25.2
2018-Feb-17 11:00N 21°17' W 063°35'0 0.0 1022.4 25.2
2018-Feb-17 10:00N 21°17' W 063°35'0 0.0 1021.7 25.2
2018-Feb-17 09:00N 21°17' W 063°35'0 0.0 1021.1 25.2
2018-Feb-17 08:00N 21°17' W 063°35'0 0.0 1021.0 25.2
2018-Feb-17 07:00N 21°17' W 063°35'0 0.0 1021.0 25.2
2018-Feb-17 06:00N 21°17' W 063°35'1 0.6 1021.4 25.2
2018-Feb-17 05:00N 21°17' W 063°34'0 0.0 1022.1 25.2
2018-Feb-17 04:00N 21°17' W 063°34'0 0.0 1022.2 25.2
2018-Feb-17 03:00N 21°17' W 063°34'1 0.6 1022.6 25.2
2018-Feb-17 02:00N 21°17' W 063°34'0 0.0 1022.7 25.2
2018-Feb-17 01:00N 21°17' W 063°34'1 0.8 1022.4 25.3
2018-Feb-17 00:00N 21°17' W 063°33'0 0.0 1022.2 25.3
2018-Feb-16 23:00N 21°17' W 063°33'0 0.0 1021.6 25.2
2018-Feb-16 22:00N 21°17' W 063°33'1 0.6 1021.4 25.3
2018-Feb-16 21:00N 21°17' W 063°32'0 0.0 1021.0 25.3
2018-Feb-16 20:00N 21°17' W 063°32'1 0.6 1020.6 25.3
2018-Feb-16 19:00N 21°17' W 063°32'0 0.0 1020.8 25.3
2018-Feb-16 18:00N 21°17' W 063°32'1 0.6 1021.3 25.3
2018-Feb-16 17:00N 21°17' W 063°31'1 0.6 1022.1 25.3
2018-Feb-16 16:00N 21°18' W 063°31'1 0.6 1022.7 25.3
2018-Feb-16 15:00N 21°18' W 063°31'0 0.0 1023.1 25.2
2018-Feb-16 14:00N 21°18' W 063°31'1 0.6 1023.1 25.2
2018-Feb-16 13:00N 21°19' W 063°31'1 0.6 1022.8 25.2
2018-Feb-16 12:00N 21°19' W 063°30'1 0.6 1022.1 25.2
2018-Feb-16 11:00N 21°19' W 063°30'0 0.0 1021.5 25.2
2018-Feb-16 10:00N 21°19' W 063°30'0 0.0 1020.7 25.2
2018-Feb-16 09:00N 21°19' W 063°30'1 0.6 1020.9 25.2
2018-Feb-16 08:00N 21°19' W 063°29'0 0.0 1020.8 25.2
2018-Feb-16 07:00N 21°19' W 063°29'0 0.0 1021.1 25.2
2018-Feb-16 06:00N 21°19' W 063°29'0 0.0 1021.7 25.2
2018-Feb-16 05:00N 21°19' W 063°29'1 0.8 1022.2 25.2
2018-Feb-16 04:00N 21°20' W 063°29'0 0.0 1022.6 25.2
2018-Feb-16 03:00N 21°20' W 063°29'1 0.6 1022.9 25.2
2018-Feb-16 02:00N 21°20' W 063°28'0 0.0 1022.9 25.2
2018-Feb-16 01:00N 21°20' W 063°28'1 0.6 1022.8 25.2
2018-Feb-16 00:00N 21°20' W 063°28'1 0.6 1022.5 25.2
2018-Feb-15 23:00N 21°20' W 063°28'0 0.0 1022.1 25.2
2018-Feb-15 22:00N 21°20' W 063°28'1 0.6 1021.9 25.2
2018-Feb-15 21:00N 21°20' W 063°27'1 0.6 1021.5 25.3
2018-Feb-15 20:00N 21°21' W 063°27'1 0.6 1021.2 25.3
2018-Feb-15 19:00N 21°21' W 063°26'1 0.6 1021.5 25.3
2018-Feb-15 18:00N 21°21' W 063°26'1 0.6 1022.1 25.3
2018-Feb-15 17:00N 21°21' W 063°25'1 0.6 1022.8 25.2
2018-Feb-15 16:00N 21°22' W 063°25'1 0.6 1023.8 25.2
2018-Feb-15 15:00N 21°22' W 063°25'1 0.8 1024.3 25.2
2018-Feb-15 14:00N 21°22' W 063°24'1 0.8 1024.2 25.2
2018-Feb-15 13:00N 21°23' W 063°23'1 0.6 1023.6 25.2
2018-Feb-15 12:00N 21°23' W 063°23'1 0.6 1023.1 25.2
2018-Feb-15 11:00N 21°23' W 063°23'1 0.8 1022.6 25.2
2018-Feb-15 10:00N 21°24' W 063°22'1 0.8 1022.2 25.2
2018-Feb-15 09:00N 21°25' W 063°22'0 0.0 1021.9 25.2
2018-Feb-15 08:00N 21°25' W 063°22'1 0.8 1022.0 25.2
2018-Feb-15 07:00N 21°25' W 063°21'1 0.8 1022.5 25.2
2018-Feb-15 06:00N 21°26' W 063°20'1 0.8 1022.9 25.2
2018-Feb-15 05:00N 21°26' W 063°20'1 0.6 1023.5 25.2
2018-Feb-15 04:00N 21°27' W 063°20'1 0.8 1023.7 25.2
2018-Feb-15 03:00N 21°28' W 063°19'1 0.8 1023.9 25.2
2018-Feb-15 02:00N 21°28' W 063°19'1 0.6 1023.9 25.2
2018-Feb-15 01:00N 21°29' W 063°19'1 0.8 1024.0 25.2
2018-Feb-15 00:00N 21°29' W 063°18'1 0.8 1023.5 25.2
2018-Feb-14 23:00N 21°30' W 063°17'0 0.0 1023.0 25.2
2018-Feb-14 22:00N 21°30' W 063°17'1 0.8 1022.8 25.2
2018-Feb-14 21:00N 21°31' W 063°17'1 0.6 1022.7 25.2
2018-Feb-14 20:00N 21°31' W 063°16'1 0.8 1022.6 25.3
2018-Feb-14 19:00N 21°31' W 063°16'1 0.6 1023.1 25.3
2018-Feb-14 18:00N 21°31' W 063°15'1 1.3 1023.6 25.3
2018-Feb-14 17:00N 21°32' W 063°14'1 0.6 1024.1 25.2
2018-Feb-14 16:00N 21°32' W 063°13'1 0.6 1024.4 25.3
2018-Feb-14 15:00N 21°32' W 063°13'1 0.6 1024.9 25.2
2018-Feb-14 14:00N 21°32' W 063°13'1 0.8 1025.3 25.2
2018-Feb-14 13:00N 21°33' W 063°12'1 0.6 1024.8 25.2
2018-Feb-14 12:00N 21°33' W 063°11'1 1.1 1024.1 25.2
2018-Feb-14 11:00N 21°33' W 063°10'1 0.8 1023.4 25.2
2018-Feb-14 10:00N 21°34' W 063°10'1 0.6 1023.2 25.2
2018-Feb-14 09:00N 21°34' W 063°09'1 0.6 1023.2 25.2
2018-Feb-14 08:00N 21°34' W 063°08'1 0.6 1023.1 25.2
2018-Feb-14 07:00N 21°34' W 063°08'1 0.6 1023.5 25.2
2018-Feb-14 06:00N 21°34' W 063°07'1 0.6 1024.2 25.2
2018-Feb-14 05:00N 21°34' W 063°07'1 1.1 1024.9 25.2
2018-Feb-14 04:00N 21°34' W 063°05'1 0.6 1025.3 25.2
2018-Feb-14 03:00N 21°34' W 063°05'1 0.6 1025.5 25.2
2018-Feb-14 02:00N 21°34' W 063°04'1 0.6 1025.3 25.2
2018-Feb-14 01:00N 21°34' W 063°04'1 0.6 1024.9 25.2
2018-Feb-14 00:00N 21°34' W 063°03'1 0.6 1024.5 25.2
2018-Feb-13 23:00N 21°34' W 063°02'1 0.6 1024.1 25.2
2018-Feb-13 22:00N 21°34' W 063°02'1 0.6 1023.8 25.2
2018-Feb-13 21:00N 21°34' W 063°01'1 0.6 1023.3 25.3
2018-Feb-13 20:00N 21°34' W 063°01'1 0.6 1023.2 25.3
2018-Feb-13 19:00N 21°34' W 063°00'1 0.8 1023.5 25.3
2018-Feb-13 18:00N 21°33' W 062°59'1 0.6 1023.7 25.3
2018-Feb-13 17:00N 21°33' W 062°59'1 0.6 1024.5 25.3
2018-Feb-13 16:00N 21°33' W 062°58'1 0.6 1025.5 25.3
2018-Feb-13 15:00N 21°33' W 062°58'1 0.8 1026.4 25.3
2018-Feb-13 14:00N 21°32' W 062°57'0 0.0 1026.6 25.3
2018-Feb-13 13:00N 21°32' W 062°57'1 0.6 1026.0 25.3
2018-Feb-13 12:00N 21°32' W 062°56'1 0.6 1025.0 25.2
2018-Feb-13 11:00N 21°32' W 062°56'0 0.0 1024.2 25.2
2018-Feb-13 10:00N 21°32' W 062°56'1 0.8 1023.7 25.2
2018-Feb-13 09:00N 21°32' W 062°55'0 0.0 1023.5 25.2
2018-Feb-13 08:00N 21°32' W 062°55'1 0.6 1023.5 25.3
2018-Feb-13 07:00N 21°31' W 062°55'1 0.6 1023.9 25.3
2018-Feb-13 06:00N 21°31' W 062°55'1 0.6 1024.3 25.3
2018-Feb-13 05:00N 21°31' W 062°55'1 0.8 1024.8 25.2
2018-Feb-13 04:00N 21°30' W 062°54'0 0.0 1024.9 25.2
2018-Feb-13 03:00N 21°30' W 062°54'1 0.8 1025.2 25.3
2018-Feb-13 02:00N 21°29' W 062°53'0 0.0 1025.2 25.3
2018-Feb-13 01:00N 21°29' W 062°53'1 0.6 1024.8 25.3
2018-Feb-13 00:00N 21°29' W 062°53'1 0.8 1024.5 25.3
2018-Feb-12 23:00N 21°28' W 062°53'0 0.0 1024.0 25.3
2018-Feb-12 22:00N 21°28' W 062°53'1 0.6 1023.4 25.3
2018-Feb-12 21:00N 21°28' W 062°53'1 0.6 1023.0 25.3
2018-Feb-12 20:00N 21°27' W 062°53'1 0.6 1023.0 25.3
2018-Feb-12 19:00N 21°26' W 062°53'0 0.0 1023.0 25.3
2018-Feb-12 18:00N 21°26' W 062°53'1 0.8 1023.1 25.4
2018-Feb-12 17:00N 21°26' W 062°52'1 0.6 1023.9 25.3
2018-Feb-12 16:00N 21°25' W 062°52'0 0.0 1025.0 25.3
2018-Feb-12 15:00N 21°25' W 062°52'1 0.8 1025.9 25.3
2018-Feb-12 14:00N 21°25' W 062°52'0 0.0 1026.0 25.3
2018-Feb-12 13:00N 21°25' W 062°52'1 0.6 1025.6 25.3
2018-Feb-12 12:00N 21°24' W 062°52'0 0.0 1025.1 25.3
2018-Feb-12 11:00N 21°24' W 062°52'0 0.0 1024.5 25.3
2018-Feb-12 10:00N 21°24' W 062°52'1 0.6 1024.2 25.3
2018-Feb-12 09:00N 21°23' W 062°52'0 0.0 1023.9 25.3
2018-Feb-12 08:00N 21°23' W 062°52'0 0.0 1023.8 25.3
2018-Feb-12 07:00N 21°23' W 062°52'1 0.8 1023.7 25.3
2018-Feb-12 06:00N 21°23' W 062°52'0 0.0 1024.2 25.3
2018-Feb-12 05:00N 21°23' W 062°52'1 0.6 1024.6 25.3
2018-Feb-12 04:00N 21°22' W 062°52'1 0.6 1024.7 25.3
2018-Feb-12 03:00N 21°22' W 062°53'1 0.8 1024.9 25.3
2018-Feb-12 02:00N 21°22' W 062°53'0 0.0 1024.8 25.3
2018-Feb-12 01:00N 21°22' W 062°53'1 0.8 1024.6 25.3
2018-Feb-12 00:00N 21°21' W 062°54'1 0.6 1024.1 25.4
2018-Feb-11 23:00N 21°20' W 062°54'1 0.6 1023.5 25.3
2018-Feb-11 22:00N 21°20' W 062°55'1 0.6 1023.2 25.4
2018-Feb-11 21:00N 21°20' W 062°55'1 0.6 1022.7 25.3
2018-Feb-11 20:00N 21°19' W 062°55'1 0.8 1022.5 25.3
2018-Feb-11 19:00N 21°19' W 062°55'0 0.0 1022.6 25.4
2018-Feb-11 18:00N 21°19' W 062°55'1 0.6 1023.2 25.4
2018-Feb-11 17:00N 21°18' W 062°55'1 0.6 1023.7 25.4
2018-Feb-11 16:00N 21°17' W 062°55'0 0.0 1024.5 25.3
2018-Feb-11 15:00N 21°17' W 062°55'1 0.8 1025.1 25.4
2018-Feb-11 14:00N 21°17' W 062°55'0 0.0 1025.3 25.3
2018-Feb-11 13:00N 21°17' W 062°55'0 0.0 1025.0 25.3
2018-Feb-11 12:00N 21°17' W 062°55'0 0.0 1024.3 25.3
2018-Feb-11 11:00N 21°17' W 062°55'1 0.6 1023.7 25.3
2018-Feb-11 10:00N 21°16' W 062°55'0 0.0 1023.0 25.3
2018-Feb-11 09:00N 21°16' W 062°55'0 0.0 1022.5 25.3
2018-Feb-11 08:00N 21°16' W 062°55'1 0.6 1022.4 25.3
2018-Feb-11 07:00N 21°16' W 062°55'1 0.6 1022.5 25.3
2018-Feb-11 06:00N 21°16' W 062°55'0 0.0 1023.0 25.3
2018-Feb-11 05:00N 21°16' W 062°55'1 0.8 1023.6 25.3
2018-Feb-11 04:00N 21°15' W 062°56'0 0.0 1023.8 25.3
2018-Feb-11 03:00N 21°15' W 062°56'1 0.6 1024.1 25.3
2018-Feb-11 02:00N 21°14' W 062°56'1 0.6 1023.9 25.4
2018-Feb-11 01:00N 21°14' W 062°56'0 0.0 1023.6 25.4
2018-Feb-11 00:00N 21°14' W 062°56'   1023.3 25.4
Track history (hours):
 
Tides and Currents Weather Stations Pressure Air Temp Water Temp Dewpoint Dewpoint Depression Visibility Wind Speed Wind Dir Waves Ship Positions

Drifting buoy 31735

Last reported at 2018-Feb-21 00:00 UTC. Time now 2018-Feb-21 01:28 UTC.
Position N 21°05' W 063°37'.

Barometer 1023.6 mb
Water temperature 25.1 ° C

Date/timePositionNaut miles runAvg speedWind from/ knotsBaromVisibWave heightAir tempDewpointWater temp
2018-Feb-21 00:00N 21°05' W 063°37'0 0.0 1023.6 25.1
2018-Feb-20 23:00N 21°05' W 063°37'1 0.8 1023.2 25.1
2018-Feb-20 22:00N 21°05' W 063°37'0 0.0 1022.8 25.2
2018-Feb-20 21:00N 21°05' W 063°37'1 0.6 1022.5 25.2
2018-Feb-20 20:00N 21°05' W 063°36'1 0.6 1022.4 25.2
2018-Feb-20 19:00N 21°06' W 063°36'0 0.0 1022.6 25.1
2018-Feb-20 18:00N 21°06' W 063°36'1 0.8 1023.1 25.2
2018-Feb-20 17:00N 21°07' W 063°35'0 0.0 1023.7 25.2
2018-Feb-20 16:00N 21°07' W 063°35'1 0.6 1024.2 25.2
2018-Feb-20 15:00N 21°07' W 063°35'1 0.6 1024.6 25.1
2018-Feb-20 14:00N 21°08' W 063°35'0 0.0 1024.5 25.2
2018-Feb-20 13:00N 21°08' W 063°35'0 0.0 1024.1 25.1
2018-Feb-20 12:00N 21°08' W 063°35'1 0.8 1023.5 25.1
2018-Feb-20 11:00N 21°08' W 063°36'0 0.0 1023.1 25.2
2018-Feb-20 10:00N 21°08' W 063°36'0 0.0 1022.8 25.1
2018-Feb-20 09:00N 21°08' W 063°36'1 0.8 1022.5 25.1
2018-Feb-20 08:00N 21°09' W 063°35'1 0.6 1022.5 25.1
2018-Feb-20 07:00N 21°09' W 063°36'0 0.0 1022.8 25.1
2018-Feb-20 06:00N 21°09' W 063°36'1 0.6 1023.4 25.1
2018-Feb-20 05:00N 21°10' W 063°36'0 0.0 1023.9 25.1
2018-Feb-20 04:00N 21°10' W 063°36'0 0.0 1024.2 25.1
2018-Feb-20 03:00N 21°10' W 063°36'1 0.6 1024.1 25.1
2018-Feb-20 02:00N 21°10' W 063°36'0 0.0 1024.2 25.1
2018-Feb-20 01:00N 21°10' W 063°36'1 0.6 1023.9 25.2
2018-Feb-20 00:00N 21°10' W 063°35'1 0.6 1023.4 25.2
2018-Feb-19 23:00N 21°10' W 063°35'0 0.0 1023.1 25.2
2018-Feb-19 22:00N 21°10' W 063°35'0 0.0 1022.9 25.2
2018-Feb-19 21:00N 21°10' W 063°35'1 0.8 1022.5 25.2
2018-Feb-19 20:00N 21°10' W 063°34'0 0.0 1022.5 25.2
2018-Feb-19 19:00N 21°10' W 063°34'0 0.0 1022.5 25.2
2018-Feb-19 18:00N 21°10' W 063°34'1 0.6 1022.9 25.2
2018-Feb-19 17:00N 21°10' W 063°34'0 0.0 1023.5 25.2
2018-Feb-19 16:00N 21°10' W 063°34'0 0.0 1024.1 25.2
2018-Feb-19 15:00N 21°10' W 063°34'1 0.6 1024.6 25.1
2018-Feb-19 14:00N 21°10' W 063°33'0 0.0 1024.6 25.2
2018-Feb-19 13:00N 21°10' W 063°33'1 0.6 1024.0 25.1
2018-Feb-19 12:00N 21°10' W 063°32'0 0.0 1023.4 25.1
2018-Feb-19 11:00N 21°10' W 063°32'1 0.6 1022.8 25.1
2018-Feb-19 10:00N 21°10' W 063°32'0 0.0 1022.4 25.1
2018-Feb-19 09:00N 21°10' W 063°32'0 0.0 1022.0 25.1
2018-Feb-19 08:00N 21°10' W 063°32'1 0.6 1021.8 25.1
2018-Feb-19 07:00N 21°11' W 063°32'0 0.0 1022.1 25.1
2018-Feb-19 06:00N 21°11' W 063°32'0 0.0 1022.7 25.1
2018-Feb-19 05:00N 21°11' W 063°32'1 0.6 1023.1 25.2
2018-Feb-19 04:00N 21°11' W 063°32'1 0.8 1023.3 25.1
2018-Feb-19 03:00N 21°12' W 063°33'0 0.0 1023.1 25.1
2018-Feb-19 02:00N 21°12' W 063°33'1 0.6 1022.9 25.2
2018-Feb-19 01:00N 21°12' W 063°34'1 0.6 1022.8 25.2
2018-Feb-19 00:00N 21°13' W 063°34'0 0.0 1022.4 25.2
2018-Feb-18 23:00N 21°13' W 063°34'1 0.6 1022.0 25.2
2018-Feb-18 22:00N 21°13' W 063°34'0 0.0 1021.7 25.2
2018-Feb-18 21:00N 21°13' W 063°34'0 0.0 1021.4 25.2
2018-Feb-18 20:00N 21°13' W 063°34'1 0.6 1021.3 25.2
2018-Feb-18 19:00N 21°12' W 063°34'0 0.0 1021.5 25.2
2018-Feb-18 18:00N 21°12' W 063°34'1 0.6 1021.8 25.2
2018-Feb-18 17:00N 21°12' W 063°35'0 0.0 1022.4 25.3
2018-Feb-18 16:00N 21°12' W 063°35'0 0.0 1023.0 25.2
2018-Feb-18 15:00N 21°12' W 063°35'1 0.6 1023.6 25.2
2018-Feb-18 14:00N 21°13' W 063°35'0 0.0 1023.7 25.1
2018-Feb-18 13:00N 21°13' W 063°35'0 0.0 1023.6 25.1
2018-Feb-18 12:00N 21°13' W 063°35'0 0.0 1022.8 25.1
2018-Feb-18 11:00N 21°13' W 063°35'0 0.0 1021.9 25.1
2018-Feb-18 10:00N 21°13' W 063°35'0 0.0 1021.4 25.1
2018-Feb-18 09:00N 21°13' W 063°35'0 0.0 1020.8 25.1
2018-Feb-18 08:00N 21°13' W 063°35'1 0.6 1020.3 25.1
2018-Feb-18 07:00N 21°13' W 063°34'1 0.6 1020.7 25.2
2018-Feb-18 06:00N 21°13' W 063°34'0 0.0 1021.0 25.2
2018-Feb-18 05:00N 21°13' W 063°34'0 0.0 1021.6 25.2
2018-Feb-18 04:00N 21°13' W 063°34'0 0.0 1022.4 25.1
2018-Feb-18 03:00N 21°13' W 063°34'1 0.6 1022.5 25.2
2018-Feb-18 02:00N 21°14' W 063°34'0 0.0 1022.8 25.1
2018-Feb-18 01:00N 21°14' W 063°34'0 0.0 1022.8 25.2
2018-Feb-18 00:00N 21°14' W 063°34'1 0.6 1022.6 25.2
2018-Feb-17 23:00N 21°14' W 063°34'0 0.0 1021.9 25.2
2018-Feb-17 22:00N 21°14' W 063°34'1 0.6 1021.7 25.2
2018-Feb-17 21:00N 21°15' W 063°34'0 0.0 1021.5 25.2
2018-Feb-17 20:00N 21°15' W 063°34'0 0.0 1021.1 25.3
2018-Feb-17 19:00N 21°15' W 063°34'0 0.0 1021.4 25.3
2018-Feb-17 18:00N 21°15' W 063°34'1 0.6 1021.9 25.3
2018-Feb-17 17:00N 21°16' W 063°34'0 0.0 1022.6 25.3
2018-Feb-17 16:00N 21°16' W 063°34'1 0.6 1023.5 25.2
2018-Feb-17 15:00N 21°16' W 063°34'0 0.0 1023.9 25.2
2018-Feb-17 14:00N 21°16' W 063°34'1 0.6 1023.9 25.2
2018-Feb-17 13:00N 21°16' W 063°35'1 0.6 1023.6 25.2
2018-Feb-17 12:00N 21°17' W 063°35'0 0.0 1023.0 25.2
2018-Feb-17 11:00N 21°17' W 063°35'0 0.0 1022.4 25.2
2018-Feb-17 10:00N 21°17' W 063°35'0 0.0 1021.7 25.2
2018-Feb-17 09:00N 21°17' W 063°35'0 0.0 1021.1 25.2
2018-Feb-17 08:00N 21°17' W 063°35'0 0.0 1021.0 25.2
2018-Feb-17 07:00N 21°17' W 063°35'0 0.0 1021.0 25.2
2018-Feb-17 06:00N 21°17' W 063°35'1 0.6 1021.4 25.2
2018-Feb-17 05:00N 21°17' W 063°34'0 0.0 1022.1 25.2
2018-Feb-17 04:00N 21°17' W 063°34'0 0.0 1022.2 25.2
2018-Feb-17 03:00N 21°17' W 063°34'1 0.6 1022.6 25.2
2018-Feb-17 02:00N 21°17' W 063°34'0 0.0 1022.7 25.2
2018-Feb-17 01:00N 21°17' W 063°34'1 0.8 1022.4 25.3
2018-Feb-17 00:00N 21°17' W 063°33'0 0.0 1022.2 25.3
2018-Feb-16 23:00N 21°17' W 063°33'0 0.0 1021.6 25.2
2018-Feb-16 22:00N 21°17' W 063°33'1 0.6 1021.4 25.3
2018-Feb-16 21:00N 21°17' W 063°32'0 0.0 1021.0 25.3
2018-Feb-16 20:00N 21°17' W 063°32'1 0.6 1020.6 25.3
2018-Feb-16 19:00N 21°17' W 063°32'0 0.0 1020.8 25.3
2018-Feb-16 18:00N 21°17' W 063°32'1 0.6 1021.3 25.3
2018-Feb-16 17:00N 21°17' W 063°31'1 0.6 1022.1 25.3
2018-Feb-16 16:00N 21°18' W 063°31'1 0.6 1022.7 25.3
2018-Feb-16 15:00N 21°18' W 063°31'0 0.0 1023.1 25.2
2018-Feb-16 14:00N 21°18' W 063°31'1 0.6 1023.1 25.2
2018-Feb-16 13:00N 21°19' W 063°31'1 0.6 1022.8 25.2
2018-Feb-16 12:00N 21°19' W 063°30'1 0.6 1022.1 25.2
2018-Feb-16 11:00N 21°19' W 063°30'0 0.0 1021.5 25.2
2018-Feb-16 10:00N 21°19' W 063°30'0 0.0 1020.7 25.2
2018-Feb-16 09:00N 21°19' W 063°30'1 0.6 1020.9 25.2
2018-Feb-16 08:00N 21°19' W 063°29'0 0.0 1020.8 25.2
2018-Feb-16 07:00N 21°19' W 063°29'0 0.0 1021.1 25.2
2018-Feb-16 06:00N 21°19' W 063°29'0 0.0 1021.7 25.2
2018-Feb-16 05:00N 21°19' W 063°29'1 0.8 1022.2 25.2
2018-Feb-16 04:00N 21°20' W 063°29'0 0.0 1022.6 25.2
2018-Feb-16 03:00N 21°20' W 063°29'1 0.6 1022.9 25.2
2018-Feb-16 02:00N 21°20' W 063°28'0 0.0 1022.9 25.2
2018-Feb-16 01:00N 21°20' W 063°28'1 0.6 1022.8 25.2
2018-Feb-16 00:00N 21°20' W 063°28'1 0.6 1022.5 25.2
2018-Feb-15 23:00N 21°20' W 063°28'0 0.0 1022.1 25.2
2018-Feb-15 22:00N 21°20' W 063°28'1 0.6 1021.9 25.2
2018-Feb-15 21:00N 21°20' W 063°27'1 0.6 1021.5 25.3
2018-Feb-15 20:00N 21°21' W 063°27'1 0.6 1021.2 25.3
2018-Feb-15 19:00N 21°21' W 063°26'1 0.6 1021.5 25.3
2018-Feb-15 18:00N 21°21' W 063°26'1 0.6 1022.1 25.3
2018-Feb-15 17:00N 21°21' W 063°25'1 0.6 1022.8 25.2
2018-Feb-15 16:00N 21°22' W 063°25'1 0.6 1023.8 25.2
2018-Feb-15 15:00N 21°22' W 063°25'1 0.8 1024.3 25.2
2018-Feb-15 14:00N 21°22' W 063°24'1 0.8 1024.2 25.2
2018-Feb-15 13:00N 21°23' W 063°23'1 0.6 1023.6 25.2
2018-Feb-15 12:00N 21°23' W 063°23'1 0.6 1023.1 25.2
2018-Feb-15 11:00N 21°23' W 063°23'1 0.8 1022.6 25.2
2018-Feb-15 10:00N 21°24' W 063°22'1 0.8 1022.2 25.2
2018-Feb-15 09:00N 21°25' W 063°22'0 0.0 1021.9 25.2
2018-Feb-15 08:00N 21°25' W 063°22'1 0.8 1022.0 25.2
2018-Feb-15 07:00N 21°25' W 063°21'1 0.8 1022.5 25.2
2018-Feb-15 06:00N 21°26' W 063°20'1 0.8 1022.9 25.2
2018-Feb-15 05:00N 21°26' W 063°20'1 0.6 1023.5 25.2
2018-Feb-15 04:00N 21°27' W 063°20'1 0.8 1023.7 25.2
2018-Feb-15 03:00N 21°28' W 063°19'1 0.8 1023.9 25.2
2018-Feb-15 02:00N 21°28' W 063°19'1 0.6 1023.9 25.2
2018-Feb-15 01:00N 21°29' W 063°19'1 0.8 1024.0 25.2
2018-Feb-15 00:00N 21°29' W 063°18'1 0.8 1023.5 25.2
2018-Feb-14 23:00N 21°30' W 063°17'0 0.0 1023.0 25.2
2018-Feb-14 22:00N 21°30' W 063°17'1 0.8 1022.8 25.2
2018-Feb-14 21:00N 21°31' W 063°17'1 0.6 1022.7 25.2
2018-Feb-14 20:00N 21°31' W 063°16'1 0.8 1022.6 25.3
2018-Feb-14 19:00N 21°31' W 063°16'1 0.6 1023.1 25.3
2018-Feb-14 18:00N 21°31' W 063°15'1 1.3 1023.6 25.3
2018-Feb-14 17:00N 21°32' W 063°14'1 0.6 1024.1 25.2
2018-Feb-14 16:00N 21°32' W 063°13'1 0.6 1024.4 25.3
2018-Feb-14 15:00N 21°32' W 063°13'1 0.6 1024.9 25.2
2018-Feb-14 14:00N 21°32' W 063°13'1 0.8 1025.3 25.2
2018-Feb-14 13:00N 21°33' W 063°12'1 0.6 1024.8 25.2
2018-Feb-14 12:00N 21°33' W 063°11'1 1.1 1024.1 25.2
2018-Feb-14 11:00N 21°33' W 063°10'1 0.8 1023.4 25.2
2018-Feb-14 10:00N 21°34' W 063°10'1 0.6 1023.2 25.2
2018-Feb-14 09:00N 21°34' W 063°09'1 0.6 1023.2 25.2
2018-Feb-14 08:00N 21°34' W 063°08'1 0.6 1023.1 25.2
2018-Feb-14 07:00N 21°34' W 063°08'1 0.6 1023.5 25.2
2018-Feb-14 06:00N 21°34' W 063°07'1 0.6 1024.2 25.2
2018-Feb-14 05:00N 21°34' W 063°07'1 1.1 1024.9 25.2
2018-Feb-14 04:00N 21°34' W 063°05'1 0.6 1025.3 25.2
2018-Feb-14 03:00N 21°34' W 063°05'1 0.6 1025.5 25.2
2018-Feb-14 02:00N 21°34' W 063°04'1 0.6 1025.3 25.2
2018-Feb-14 01:00N 21°34' W 063°04'1 0.6 1024.9 25.2
2018-Feb-14 00:00N 21°34' W 063°03'1 0.6 1024.5 25.2
2018-Feb-13 23:00N 21°34' W 063°02'1 0.6 1024.1 25.2
2018-Feb-13 22:00N 21°34' W 063°02'1 0.6 1023.8 25.2
2018-Feb-13 21:00N 21°34' W 063°01'1 0.6 1023.3 25.3
2018-Feb-13 20:00N 21°34' W 063°01'1 0.6 1023.2 25.3
2018-Feb-13 19:00N 21°34' W 063°00'1 0.8 1023.5 25.3
2018-Feb-13 18:00N 21°33' W 062°59'1 0.6 1023.7 25.3
2018-Feb-13 17:00N 21°33' W 062°59'1 0.6 1024.5 25.3
2018-Feb-13 16:00N 21°33' W 062°58'1 0.6 1025.5 25.3
2018-Feb-13 15:00N 21°33' W 062°58'1 0.8 1026.4 25.3
2018-Feb-13 14:00N 21°32' W 062°57'0 0.0 1026.6 25.3
2018-Feb-13 13:00N 21°32' W 062°57'1 0.6 1026.0 25.3
2018-Feb-13 12:00N 21°32' W 062°56'1 0.6 1025.0 25.2
2018-Feb-13 11:00N 21°32' W 062°56'0 0.0 1024.2 25.2
2018-Feb-13 10:00N 21°32' W 062°56'1 0.8 1023.7 25.2
2018-Feb-13 09:00N 21°32' W 062°55'0 0.0 1023.5 25.2
2018-Feb-13 08:00N 21°32' W 062°55'1 0.6 1023.5 25.3
2018-Feb-13 07:00N 21°31' W 062°55'1 0.6 1023.9 25.3
2018-Feb-13 06:00N 21°31' W 062°55'1 0.6 1024.3 25.3
2018-Feb-13 05:00N 21°31' W 062°55'1 0.8 1024.8 25.2
2018-Feb-13 04:00N 21°30' W 062°54'0 0.0 1024.9 25.2
2018-Feb-13 03:00N 21°30' W 062°54'1 0.8 1025.2 25.3
2018-Feb-13 02:00N 21°29' W 062°53'0 0.0 1025.2 25.3
2018-Feb-13 01:00N 21°29' W 062°53'1 0.6 1024.8 25.3
2018-Feb-13 00:00N 21°29' W 062°53'1 0.8 1024.5 25.3
2018-Feb-12 23:00N 21°28' W 062°53'0 0.0 1024.0 25.3
2018-Feb-12 22:00N 21°28' W 062°53'1 0.6 1023.4 25.3
2018-Feb-12 21:00N 21°28' W 062°53'1 0.6 1023.0 25.3
2018-Feb-12 20:00N 21°27' W 062°53'1 0.6 1023.0 25.3
2018-Feb-12 19:00N 21°26' W 062°53'0 0.0 1023.0 25.3
2018-Feb-12 18:00N 21°26' W 062°53'1 0.8 1023.1 25.4
2018-Feb-12 17:00N 21°26' W 062°52'1 0.6 1023.9 25.3
2018-Feb-12 16:00N 21°25' W 062°52'0 0.0 1025.0 25.3
2018-Feb-12 15:00N 21°25' W 062°52'1 0.8 1025.9 25.3
2018-Feb-12 14:00N 21°25' W 062°52'0 0.0 1026.0 25.3
2018-Feb-12 13:00N 21°25' W 062°52'1 0.6 1025.6 25.3
2018-Feb-12 12:00N 21°24' W 062°52'0 0.0 1025.1 25.3
2018-Feb-12 11:00N 21°24' W 062°52'0 0.0 1024.5 25.3
2018-Feb-12 10:00N 21°24' W 062°52'1 0.6 1024.2 25.3
2018-Feb-12 09:00N 21°23' W 062°52'0 0.0 1023.9 25.3
2018-Feb-12 08:00N 21°23' W 062°52'0 0.0 1023.8 25.3
2018-Feb-12 07:00N 21°23' W 062°52'1 0.8 1023.7 25.3
2018-Feb-12 06:00N 21°23' W 062°52'0 0.0 1024.2 25.3
2018-Feb-12 05:00N 21°23' W 062°52'1 0.6 1024.6 25.3
2018-Feb-12 04:00N 21°22' W 062°52'1 0.6 1024.7 25.3
2018-Feb-12 03:00N 21°22' W 062°53'1 0.8 1024.9 25.3
2018-Feb-12 02:00N 21°22' W 062°53'0 0.0 1024.8 25.3
2018-Feb-12 01:00N 21°22' W 062°53'1 0.8 1024.6 25.3
2018-Feb-12 00:00N 21°21' W 062°54'1 0.6 1024.1 25.4
2018-Feb-11 23:00N 21°20' W 062°54'1 0.6 1023.5 25.3
2018-Feb-11 22:00N 21°20' W 062°55'1 0.6 1023.2 25.4
2018-Feb-11 21:00N 21°20' W 062°55'1 0.6 1022.7 25.3
2018-Feb-11 20:00N 21°19' W 062°55'1 0.8 1022.5 25.3
2018-Feb-11 19:00N 21°19' W 062°55'0 0.0 1022.6 25.4
2018-Feb-11 18:00N 21°19' W 062°55'1 0.6 1023.2 25.4
2018-Feb-11 17:00N 21°18' W 062°55'1 0.6 1023.7 25.4
2018-Feb-11 16:00N 21°17' W 062°55'0 0.0 1024.5 25.3
2018-Feb-11 15:00N 21°17' W 062°55'1 0.8 1025.1 25.4
2018-Feb-11 14:00N 21°17' W 062°55'0 0.0 1025.3 25.3
2018-Feb-11 13:00N 21°17' W 062°55'0 0.0 1025.0 25.3
2018-Feb-11 12:00N 21°17' W 062°55'0 0.0 1024.3 25.3
2018-Feb-11 11:00N 21°17' W 062°55'1 0.6 1023.7 25.3
2018-Feb-11 10:00N 21°16' W 062°55'0 0.0 1023.0 25.3
2018-Feb-11 09:00N 21°16' W 062°55'0 0.0 1022.5 25.3
2018-Feb-11 08:00N 21°16' W 062°55'1 0.6 1022.4 25.3
2018-Feb-11 07:00N 21°16' W 062°55'1 0.6 1022.5 25.3
2018-Feb-11 06:00N 21°16' W 062°55'0 0.0 1023.0 25.3
2018-Feb-11 05:00N 21°16' W 062°55'1 0.8 1023.6 25.3
2018-Feb-11 04:00N 21°15' W 062°56'0 0.0 1023.8 25.3
2018-Feb-11 03:00N 21°15' W 062°56'1 0.6 1024.1 25.3
2018-Feb-11 02:00N 21°14' W 062°56'1 0.6 1023.9 25.4
2018-Feb-11 01:00N 21°14' W 062°56'0 0.0 1023.6 25.4
2018-Feb-11 00:00N 21°14' W 062°56'   1023.3 25.4

Dump ship's entire track history